sensor_id;sensor_type;location;lat;lon;timestamp;P1;durP1;ratioP1;P2;durP2;ratioP2
9761;SDS011;4920;49.594;11.022;2023-02-13T00:01:33;72.17;;;35.40;;
9761;SDS011;4920;49.594;11.022;2023-02-13T00:04:02;73.63;;;35.20;;
9761;SDS011;4920;49.594;11.022;2023-02-13T00:06:35;72.27;;;35.37;;
9761;SDS011;4920;49.594;11.022;2023-02-13T00:09:12;71.23;;;34.73;;
9761;SDS011;4920;49.594;11.022;2023-02-13T00:11:42;73.33;;;35.40;;
9761;SDS011;4920;49.594;11.022;2023-02-13T00:14:20;71.73;;;34.53;;
9761;SDS011;4920;49.594;11.022;2023-02-13T00:16:52;74.47;;;35.63;;
9761;SDS011;4920;49.594;11.022;2023-02-13T00:19:24;74.00;;;34.60;;
9761;SDS011;4920;49.594;11.022;2023-02-13T00:21:55;73.00;;;34.73;;
9761;SDS011;4920;49.594;11.022;2023-02-13T00:24:26;77.20;;;35.53;;
9761;SDS011;4920;49.594;11.022;2023-02-13T00:26:57;72.67;;;34.47;;
9761;SDS011;4920;49.594;11.022;2023-02-13T00:29:31;68.57;;;33.37;;
9761;SDS011;4920;49.594;11.022;2023-02-13T00:32:26;72.90;;;34.77;;
9761;SDS011;4920;49.594;11.022;2023-02-13T00:34:55;70.77;;;33.60;;
9761;SDS011;4920;49.594;11.022;2023-02-13T00:37:30;70.20;;;33.00;;
9761;SDS011;4920;49.594;11.022;2023-02-13T00:40:00;67.03;;;32.00;;
9761;SDS011;4920;49.594;11.022;2023-02-13T00:42:29;67.03;;;30.50;;
9761;SDS011;4920;49.594;11.022;2023-02-13T00:44:58;66.43;;;30.30;;
9761;SDS011;4920;49.594;11.022;2023-02-13T00:47:28;68.07;;;30.87;;
9761;SDS011;4920;49.594;11.022;2023-02-13T00:49:57;64.73;;;29.70;;
9761;SDS011;4920;49.594;11.022;2023-02-13T00:52:26;66.87;;;30.50;;
9761;SDS011;4920;49.594;11.022;2023-02-13T00:54:56;65.43;;;29.77;;
9761;SDS011;4920;49.594;11.022;2023-02-13T00:57:25;61.83;;;28.53;;
9761;SDS011;4920;49.594;11.022;2023-02-13T00:59:55;66.50;;;30.20;;
9761;SDS011;4920;49.594;11.022;2023-02-13T01:02:24;56.93;;;29.30;;
9761;SDS011;4920;49.594;11.022;2023-02-13T01:04:54;54.30;;;26.80;;
9761;SDS011;4920;49.594;11.022;2023-02-13T01:07:23;54.93;;;27.13;;
9761;SDS011;4920;49.594;11.022;2023-02-13T01:09:52;49.80;;;26.93;;
9761;SDS011;4920;49.594;11.022;2023-02-13T01:12:22;47.90;;;23.93;;
9761;SDS011;4920;49.594;11.022;2023-02-13T01:14:51;41.20;;;21.27;;
9761;SDS011;4920;49.594;11.022;2023-02-13T01:17:19;43.53;;;22.13;;
9761;SDS011;4920;49.594;11.022;2023-02-13T01:19:48;46.80;;;23.03;;
9761;SDS011;4920;49.594;11.022;2023-02-13T01:22:17;45.27;;;22.93;;
9761;SDS011;4920;49.594;11.022;2023-02-13T01:24:47;44.83;;;23.13;;
9761;SDS011;4920;49.594;11.022;2023-02-13T01:27:16;44.67;;;22.73;;
9761;SDS011;4920;49.594;11.022;2023-02-13T01:29:47;48.67;;;23.13;;
9761;SDS011;4920;49.594;11.022;2023-02-13T01:32:16;44.87;;;23.20;;
9761;SDS011;4920;49.594;11.022;2023-02-13T01:34:45;43.30;;;22.93;;
9761;SDS011;4920;49.594;11.022;2023-02-13T01:37:14;48.20;;;23.30;;
9761;SDS011;4920;49.594;11.022;2023-02-13T01:39:43;48.07;;;23.63;;
9761;SDS011;4920;49.594;11.022;2023-02-13T01:42:13;43.13;;;22.87;;
9761;SDS011;4920;49.594;11.022;2023-02-13T01:44:52;44.20;;;23.17;;
9761;SDS011;4920;49.594;11.022;2023-02-13T01:47:24;45.93;;;22.70;;
9761;SDS011;4920;49.594;11.022;2023-02-13T01:50:01;43.00;;;22.80;;
9761;SDS011;4920;49.594;11.022;2023-02-13T01:52:34;47.03;;;23.10;;
9761;SDS011;4920;49.594;11.022;2023-02-13T01:55:05;46.07;;;23.13;;
9761;SDS011;4920;49.594;11.022;2023-02-13T01:57:36;44.53;;;22.23;;
9761;SDS011;4920;49.594;11.022;2023-02-13T02:00:10;44.73;;;22.40;;
9761;SDS011;4920;49.594;11.022;2023-02-13T02:02:44;43.43;;;21.43;;
9761;SDS011;4920;49.594;11.022;2023-02-13T02:05:20;41.10;;;21.00;;
9761;SDS011;4920;49.594;11.022;2023-02-13T02:07:53;41.07;;;20.57;;
9761;SDS011;4920;49.594;11.022;2023-02-13T02:10:25;40.27;;;20.57;;
9761;SDS011;4920;49.594;11.022;2023-02-13T02:12:54;39.93;;;20.77;;
9761;SDS011;4920;49.594;11.022;2023-02-13T02:15:31;39.37;;;20.73;;
9761;SDS011;4920;49.594;11.022;2023-02-13T02:18:01;39.63;;;20.07;;
9761;SDS011;4920;49.594;11.022;2023-02-13T02:20:35;43.90;;;20.53;;
9761;SDS011;4920;49.594;11.022;2023-02-13T02:23:31;42.27;;;20.83;;
9761;SDS011;4920;49.594;11.022;2023-02-13T02:26:42;38.37;;;20.40;;
9761;SDS011;4920;49.594;11.022;2023-02-13T02:29:54;40.57;;;20.57;;
9761;SDS011;4920;49.594;11.022;2023-02-13T02:32:48;41.23;;;21.13;;
9761;SDS011;4920;49.594;11.022;2023-02-13T02:35:33;44.10;;;20.87;;
9761;SDS011;4920;49.594;11.022;2023-02-13T02:38:11;46.13;;;20.97;;
9761;SDS011;4920;49.594;11.022;2023-02-13T02:40:56;43.13;;;21.03;;
9761;SDS011;4920;49.594;11.022;2023-02-13T02:43:39;44.03;;;20.87;;
9761;SDS011;4920;49.594;11.022;2023-02-13T02:46:23;42.93;;;20.30;;
9761;SDS011;4920;49.594;11.022;2023-02-13T02:49:02;40.27;;;20.97;;
9761;SDS011;4920;49.594;11.022;2023-02-13T02:51:54;44.67;;;22.03;;
9761;SDS011;4920;49.594;11.022;2023-02-13T02:54:30;41.50;;;19.93;;
9761;SDS011;4920;49.594;11.022;2023-02-13T02:57:28;43.50;;;21.77;;
9761;SDS011;4920;49.594;11.022;2023-02-13T03:00:20;45.40;;;21.37;;
9761;SDS011;4920;49.594;11.022;2023-02-13T03:03:10;41.70;;;20.80;;
9761;SDS011;4920;49.594;11.022;2023-02-13T03:06:03;40.37;;;21.03;;
9761;SDS011;4920;49.594;11.022;2023-02-13T03:08:41;39.03;;;21.03;;
9761;SDS011;4920;49.594;11.022;2023-02-13T03:11:30;39.73;;;19.83;;
9761;SDS011;4920;49.594;11.022;2023-02-13T03:14:17;37.13;;;19.40;;
9761;SDS011;4920;49.594;11.022;2023-02-13T03:16:48;41.60;;;20.23;;
9761;SDS011;4920;49.594;11.022;2023-02-13T03:19:37;38.43;;;20.43;;
9761;SDS011;4920;49.594;11.022;2023-02-13T03:22:40;39.67;;;19.10;;
9761;SDS011;4920;49.594;11.022;2023-02-13T03:25:17;36.57;;;17.77;;
9761;SDS011;4920;49.594;11.022;2023-02-13T03:27:57;35.37;;;18.07;;
9761;SDS011;4920;49.594;11.022;2023-02-13T03:30:50;38.57;;;19.40;;
9761;SDS011;4920;49.594;11.022;2023-02-13T03:33:31;38.43;;;19.30;;
9761;SDS011;4920;49.594;11.022;2023-02-13T03:36:14;36.47;;;18.30;;
9761;SDS011;4920;49.594;11.022;2023-02-13T03:39:07;34.23;;;18.27;;
9761;SDS011;4920;49.594;11.022;2023-02-13T03:41:40;38.83;;;19.40;;
9761;SDS011;4920;49.594;11.022;2023-02-13T03:44:14;35.53;;;18.87;;
9761;SDS011;4920;49.594;11.022;2023-02-13T03:46:50;48.23;;;23.10;;
9761;SDS011;4920;49.594;11.022;2023-02-13T03:49:23;43.90;;;21.70;;
9761;SDS011;4920;49.594;11.022;2023-02-13T03:52:15;46.93;;;23.60;;
9761;SDS011;4920;49.594;11.022;2023-02-13T03:54:51;49.87;;;24.37;;
9761;SDS011;4920;49.594;11.022;2023-02-13T03:57:42;48.83;;;23.30;;
9761;SDS011;4920;49.594;11.022;2023-02-13T04:00:31;43.93;;;22.57;;
9761;SDS011;4920;49.594;11.022;2023-02-13T04:03:05;40.83;;;22.70;;
9761;SDS011;4920;49.594;11.022;2023-02-13T04:05:41;44.63;;;22.93;;
9761;SDS011;4920;49.594;11.022;2023-02-13T04:08:11;43.30;;;23.00;;
9761;SDS011;4920;49.594;11.022;2023-02-13T04:10:45;46.13;;;22.90;;
9761;SDS011;4920;49.594;11.022;2023-02-13T04:13:19;43.57;;;23.23;;
9761;SDS011;4920;49.594;11.022;2023-02-13T04:15:55;44.03;;;21.93;;
9761;SDS011;4920;49.594;11.022;2023-02-13T04:18:27;47.60;;;22.20;;
9761;SDS011;4920;49.594;11.022;2023-02-13T04:21:01;44.83;;;23.40;;
9761;SDS011;4920;49.594;11.022;2023-02-13T04:23:31;44.53;;;22.63;;
9761;SDS011;4920;49.594;11.022;2023-02-13T04:26:05;43.07;;;22.77;;
9761;SDS011;4920;49.594;11.022;2023-02-13T04:28:35;47.63;;;22.97;;
9761;SDS011;4920;49.594;11.022;2023-02-13T04:31:04;45.40;;;22.50;;
9761;SDS011;4920;49.594;11.022;2023-02-13T04:33:33;45.47;;;22.33;;
9761;SDS011;4920;49.594;11.022;2023-02-13T04:36:02;43.33;;;21.87;;
9761;SDS011;4920;49.594;11.022;2023-02-13T04:38:32;39.43;;;19.40;;
9761;SDS011;4920;49.594;11.022;2023-02-13T04:44:01;64.87;;;18.53;;
9761;SDS011;4920;49.594;11.022;2023-02-13T04:46:32;46.47;;;18.87;;
9761;SDS011;4920;49.594;11.022;2023-02-13T04:49:01;34.80;;;17.50;;
9761;SDS011;4920;49.594;11.022;2023-02-13T04:51:31;30.70;;;16.07;;
9761;SDS011;4920;49.594;11.022;2023-02-13T04:54:00;27.23;;;15.73;;
9761;SDS011;4920;49.594;11.022;2023-02-13T04:56:29;25.17;;;14.33;;
9761;SDS011;4920;49.594;11.022;2023-02-13T04:58:59;21.60;;;13.93;;
9761;SDS011;4920;49.594;11.022;2023-02-13T05:01:29;25.10;;;14.17;;
9761;SDS011;4920;49.594;11.022;2023-02-13T05:03:58;22.27;;;13.87;;
9761;SDS011;4920;49.594;11.022;2023-02-13T05:06:28;22.30;;;13.83;;
9761;SDS011;4920;49.594;11.022;2023-02-13T05:08:57;20.37;;;13.13;;
9761;SDS011;4920;49.594;11.022;2023-02-13T05:11:26;26.93;;;13.23;;
9761;SDS011;4920;49.594;11.022;2023-02-13T05:13:56;58.93;;;13.77;;
9761;SDS011;4920;49.594;11.022;2023-02-13T05:16:27;55.80;;;14.37;;
9761;SDS011;4920;49.594;11.022;2023-02-13T05:18:56;42.07;;;14.67;;
9761;SDS011;4920;49.594;11.022;2023-02-13T05:21:25;55.23;;;14.97;;
9761;SDS011;4920;49.594;11.022;2023-02-13T05:24:11;88.73;;;15.10;;
9761;SDS011;4920;49.594;11.022;2023-02-13T05:26:40;149.77;;;16.50;;
9761;SDS011;4920;49.594;11.022;2023-02-13T05:29:09;89.20;;;14.33;;
9761;SDS011;4920;49.594;11.022;2023-02-13T05:31:48;80.17;;;14.67;;
9761;SDS011;4920;49.594;11.022;2023-02-13T05:34:19;94.83;;;14.57;;
9761;SDS011;4920;49.594;11.022;2023-02-13T05:36:48;69.43;;;14.37;;
9761;SDS011;4920;49.594;11.022;2023-02-13T05:39:17;108.57;;;15.40;;
9761;SDS011;4920;49.594;11.022;2023-02-13T05:41:48;92.07;;;15.27;;
9761;SDS011;4920;49.594;11.022;2023-02-13T05:44:17;103.90;;;15.10;;
9761;SDS011;4920;49.594;11.022;2023-02-13T05:46:47;64.47;;;14.60;;
9761;SDS011;4920;49.594;11.022;2023-02-13T05:49:16;57.07;;;14.93;;
9761;SDS011;4920;49.594;11.022;2023-02-13T05:51:44;84.53;;;15.97;;
9761;SDS011;4920;49.594;11.022;2023-02-13T05:54:13;90.83;;;16.43;;
9761;SDS011;4920;49.594;11.022;2023-02-13T05:56:42;85.97;;;15.87;;
9761;SDS011;4920;49.594;11.022;2023-02-13T05:59:12;91.47;;;15.77;;
9761;SDS011;4920;49.594;11.022;2023-02-13T06:01:41;71.37;;;15.37;;
9761;SDS011;4920;49.594;11.022;2023-02-13T06:04:13;89.50;;;15.40;;
9761;SDS011;4920;49.594;11.022;2023-02-13T06:06:45;121.27;;;17.20;;
9761;SDS011;4920;49.594;11.022;2023-02-13T06:09:25;79.50;;;17.40;;
9761;SDS011;4920;49.594;11.022;2023-02-13T06:12:02;93.73;;;18.87;;
9761;SDS011;4920;49.594;11.022;2023-02-13T06:14:56;74.13;;;17.57;;
9761;SDS011;4920;49.594;11.022;2023-02-13T06:17:36;67.47;;;17.67;;
9761;SDS011;4920;49.594;11.022;2023-02-13T06:20:23;48.07;;;18.73;;
9761;SDS011;4920;49.594;11.022;2023-02-13T06:23:26;62.33;;;18.87;;
9761;SDS011;4920;49.594;11.022;2023-02-13T06:26:00;89.60;;;18.70;;
9761;SDS011;4920;49.594;11.022;2023-02-13T06:28:36;77.40;;;17.87;;
9761;SDS011;4920;49.594;11.022;2023-02-13T06:31:32;66.03;;;19.10;;
9761;SDS011;4920;49.594;11.022;2023-02-13T06:34:01;59.10;;;19.23;;
9761;SDS011;4920;49.594;11.022;2023-02-13T06:36:31;50.27;;;18.43;;
9761;SDS011;4920;49.594;11.022;2023-02-13T06:39:00;47.67;;;18.20;;
9761;SDS011;4920;49.594;11.022;2023-02-13T06:41:29;95.70;;;20.10;;
9761;SDS011;4920;49.594;11.022;2023-02-13T06:43:58;52.10;;;19.27;;
9761;SDS011;4920;49.594;11.022;2023-02-13T06:46:31;88.60;;;17.70;;
9761;SDS011;4920;49.594;11.022;2023-02-13T06:48:59;64.07;;;17.97;;
9761;SDS011;4920;49.594;11.022;2023-02-13T06:51:35;95.23;;;17.83;;
9761;SDS011;4920;49.594;11.022;2023-02-13T06:54:17;103.00;;;19.07;;
9761;SDS011;4920;49.594;11.022;2023-02-13T06:57:16;126.53;;;18.23;;
9761;SDS011;4920;49.594;11.022;2023-02-13T06:59:50;97.03;;;17.80;;
9761;SDS011;4920;49.594;11.022;2023-02-13T07:02:25;110.40;;;19.47;;
9761;SDS011;4920;49.594;11.022;2023-02-13T07:04:57;91.30;;;19.50;;
9761;SDS011;4920;49.594;11.022;2023-02-13T07:07:33;81.57;;;17.60;;
9761;SDS011;4920;49.594;11.022;2023-02-13T07:10:09;80.13;;;16.87;;
9761;SDS011;4920;49.594;11.022;2023-02-13T07:12:45;297.37;;;24.83;;
9761;SDS011;4920;49.594;11.022;2023-02-13T07:15:31;297.80;;;22.27;;
9761;SDS011;4920;49.594;11.022;2023-02-13T07:18:04;214.60;;;20.57;;
9761;SDS011;4920;49.594;11.022;2023-02-13T07:20:35;329.43;;;22.27;;
9761;SDS011;4920;49.594;11.022;2023-02-13T07:23:06;235.13;;;20.37;;
9761;SDS011;4920;49.594;11.022;2023-02-13T07:25:55;207.00;;;18.53;;
9761;SDS011;4920;49.594;11.022;2023-02-13T07:29:56;238.37;;;20.13;;
9761;SDS011;4920;49.594;11.022;2023-02-13T07:32:51;99.60;;;15.23;;
9761;SDS011;4920;49.594;11.022;2023-02-13T07:35:44;79.17;;;16.27;;
9761;SDS011;4920;49.594;11.022;2023-02-13T07:38:43;86.70;;;15.33;;
9761;SDS011;4920;49.594;11.022;2023-02-13T07:41:12;44.57;;;13.27;;
9761;SDS011;4920;49.594;11.022;2023-02-13T07:43:46;47.10;;;12.97;;
9761;SDS011;4920;49.594;11.022;2023-02-13T07:46:18;144.47;;;14.87;;
9761;SDS011;4920;49.594;11.022;2023-02-13T07:48:50;436.43;;;22.97;;
9761;SDS011;4920;49.594;11.022;2023-02-13T07:51:19;165.77;;;16.83;;
9761;SDS011;4920;49.594;11.022;2023-02-13T07:53:52;121.20;;;13.53;;
9761;SDS011;4920;49.594;11.022;2023-02-13T07:56:23;83.13;;;13.77;;
9761;SDS011;4920;49.594;11.022;2023-02-13T07:58:52;75.80;;;13.33;;
9761;SDS011;4920;49.594;11.022;2023-02-13T08:01:29;88.77;;;13.83;;
9761;SDS011;4920;49.594;11.022;2023-02-13T08:04:01;84.23;;;13.00;;
9761;SDS011;4920;49.594;11.022;2023-02-13T08:06:30;35.10;;;12.43;;
9761;SDS011;4920;49.594;11.022;2023-02-13T08:09:01;28.83;;;12.33;;
9761;SDS011;4920;49.594;11.022;2023-02-13T08:20:01;67.10;;;12.07;;
9761;SDS011;4920;49.594;11.022;2023-02-13T08:22:30;48.93;;;11.20;;
9761;SDS011;4920;49.594;11.022;2023-02-13T08:25:01;19.13;;;10.40;;
9761;SDS011;4920;49.594;11.022;2023-02-13T08:27:30;28.27;;;10.73;;
9761;SDS011;4920;49.594;11.022;2023-02-13T08:30:01;18.57;;;11.30;;
9761;SDS011;4920;49.594;11.022;2023-02-13T08:32:31;41.00;;;11.47;;
9761;SDS011;4920;49.594;11.022;2023-02-13T08:35:18;46.37;;;11.60;;
9761;SDS011;4920;49.594;11.022;2023-02-13T08:37:47;24.73;;;10.53;;
9761;SDS011;4920;49.594;11.022;2023-02-13T08:44:54;31.80;;;9.33;;
9761;SDS011;4920;49.594;11.022;2023-02-13T08:47:25;61.17;;;11.07;;
9761;SDS011;4920;49.594;11.022;2023-02-13T08:49:53;13.57;;;9.60;;
9761;SDS011;4920;49.594;11.022;2023-02-13T08:52:22;18.80;;;10.30;;
9761;SDS011;4920;49.594;11.022;2023-02-13T08:54:51;20.13;;;10.30;;
9761;SDS011;4920;49.594;11.022;2023-02-13T08:57:19;24.03;;;9.47;;
9761;SDS011;4920;49.594;11.022;2023-02-13T08:59:48;18.10;;;9.47;;
9761;SDS011;4920;49.594;11.022;2023-02-13T09:02:18;30.57;;;9.37;;
9761;SDS011;4920;49.594;11.022;2023-02-13T09:04:47;13.50;;;8.73;;
9761;SDS011;4920;49.594;11.022;2023-02-13T09:07:16;14.23;;;8.57;;
9761;SDS011;4920;49.594;11.022;2023-02-13T09:09:45;15.80;;;8.70;;
9761;SDS011;4920;49.594;11.022;2023-02-13T09:12:14;14.57;;;9.67;;
9761;SDS011;4920;49.594;11.022;2023-02-13T09:14:46;17.73;;;9.60;;
9761;SDS011;4920;49.594;11.022;2023-02-13T09:17:15;14.10;;;9.57;;
9761;SDS011;4920;49.594;11.022;2023-02-13T09:19:46;15.13;;;10.53;;
9761;SDS011;4920;49.594;11.022;2023-02-13T09:22:15;30.20;;;12.10;;
9761;SDS011;4920;49.594;11.022;2023-02-13T09:24:44;35.00;;;11.23;;
9761;SDS011;4920;49.594;11.022;2023-02-13T09:27:12;33.60;;;12.33;;
9761;SDS011;4920;49.594;11.022;2023-02-13T09:29:41;18.03;;;12.33;;
9761;SDS011;4920;49.594;11.022;2023-02-13T09:32:10;20.83;;;11.43;;
9761;SDS011;4920;49.594;11.022;2023-02-13T09:34:39;20.93;;;11.47;;
9761;SDS011;4920;49.594;11.022;2023-02-13T09:37:10;26.80;;;11.20;;
9761;SDS011;4920;49.594;11.022;2023-02-13T09:39:39;17.53;;;11.23;;
9761;SDS011;4920;49.594;11.022;2023-02-13T09:42:12;17.03;;;11.20;;
9761;SDS011;4920;49.594;11.022;2023-02-13T09:44:45;25.77;;;13.33;;
9761;SDS011;4920;49.594;11.022;2023-02-13T09:47:22;16.93;;;12.27;;
9761;SDS011;4920;49.594;11.022;2023-02-13T09:50:09;15.23;;;10.83;;
9761;SDS011;4920;49.594;11.022;2023-02-13T09:53:11;15.53;;;10.97;;
9761;SDS011;4920;49.594;11.022;2023-02-13T09:55:48;15.43;;;11.10;;
9761;SDS011;4920;49.594;11.022;2023-02-13T10:01:51;13.97;;;10.83;;
9761;SDS011;4920;49.594;11.022;2023-02-13T10:04:24;15.33;;;11.07;;
9761;SDS011;4920;49.594;11.022;2023-02-13T10:07:09;16.33;;;11.60;;
9761;SDS011;4920;49.594;11.022;2023-02-13T10:09:49;13.63;;;10.60;;
9761;SDS011;4920;49.594;11.022;2023-02-13T10:12:27;14.10;;;10.30;;
9761;SDS011;4920;49.594;11.022;2023-02-13T10:15:15;16.07;;;11.23;;
9761;SDS011;4920;49.594;11.022;2023-02-13T10:17:49;14.33;;;11.13;;
9761;SDS011;4920;49.594;11.022;2023-02-13T10:20:26;15.17;;;11.33;;
9761;SDS011;4920;49.594;11.022;2023-02-13T10:22:59;15.50;;;11.57;;
9761;SDS011;4920;49.594;11.022;2023-02-13T10:25:41;15.80;;;11.43;;
9761;SDS011;4920;49.594;11.022;2023-02-13T10:28:16;13.07;;;10.60;;
9761;SDS011;4920;49.594;11.022;2023-02-13T10:31:19;14.10;;;10.80;;
9761;SDS011;4920;49.594;11.022;2023-02-13T10:33:51;13.03;;;10.43;;
9761;SDS011;4920;49.594;11.022;2023-02-13T10:36:27;15.47;;;11.27;;
9761;SDS011;4920;49.594;11.022;2023-02-13T10:39:11;14.13;;;11.10;;
9761;SDS011;4920;49.594;11.022;2023-02-13T10:45:22;16.30;;;12.03;;
9761;SDS011;4920;49.594;11.022;2023-02-13T10:48:03;15.53;;;11.60;;
9761;SDS011;4920;49.594;11.022;2023-02-13T10:50:45;16.27;;;11.30;;
9761;SDS011;4920;49.594;11.022;2023-02-13T10:53:25;14.13;;;10.83;;
9761;SDS011;4920;49.594;11.022;2023-02-13T10:56:15;20.17;;;14.70;;
9761;SDS011;4920;49.594;11.022;2023-02-13T10:59:10;14.37;;;10.93;;
9761;SDS011;4920;49.594;11.022;2023-02-13T11:01:59;13.03;;;10.03;;
9761;SDS011;4920;49.594;11.022;2023-02-13T11:04:30;16.60;;;11.10;;
9761;SDS011;4920;49.594;11.022;2023-02-13T11:07:00;16.60;;;11.87;;
9761;SDS011;4920;49.594;11.022;2023-02-13T11:09:32;15.60;;;11.10;;
9761;SDS011;4920;49.594;11.022;2023-02-13T11:12:21;14.93;;;11.13;;
9761;SDS011;4920;49.594;11.022;2023-02-13T11:14:56;19.23;;;13.73;;
9761;SDS011;4920;49.594;11.022;2023-02-13T11:17:28;17.10;;;12.20;;
9761;SDS011;4920;49.594;11.022;2023-02-13T11:20:05;18.83;;;14.10;;
9761;SDS011;4920;49.594;11.022;2023-02-13T11:22:54;20.33;;;14.57;;
9761;SDS011;4920;49.594;11.022;2023-02-13T11:25:24;20.23;;;14.60;;
9761;SDS011;4920;49.594;11.022;2023-02-13T11:28:03;20.63;;;14.50;;
9761;SDS011;4920;49.594;11.022;2023-02-13T11:30:37;20.53;;;16.23;;
9761;SDS011;4920;49.594;11.022;2023-02-13T11:33:17;22.60;;;16.20;;
9761;SDS011;4920;49.594;11.022;2023-02-13T11:35:50;19.57;;;15.77;;
9761;SDS011;4920;49.594;11.022;2023-02-13T11:38:33;22.53;;;15.87;;
9761;SDS011;4920;49.594;11.022;2023-02-13T11:41:04;20.40;;;14.77;;
9761;SDS011;4920;49.594;11.022;2023-02-13T11:43:42;20.93;;;15.20;;
9761;SDS011;4920;49.594;11.022;2023-02-13T11:46:21;20.87;;;14.63;;
9761;SDS011;4920;49.594;11.022;2023-02-13T11:48:55;20.60;;;15.47;;
9761;SDS011;4920;49.594;11.022;2023-02-13T11:51:36;17.33;;;14.03;;
9761;SDS011;4920;49.594;11.022;2023-02-13T11:57:55;19.70;;;13.77;;
9761;SDS011;4920;49.594;11.022;2023-02-13T12:03:38;17.23;;;12.17;;
9761;SDS011;4920;49.594;11.022;2023-02-13T12:06:20;15.97;;;12.90;;
9761;SDS011;4920;49.594;11.022;2023-02-13T12:10:50;14.30;;;11.93;;
9761;SDS011;4920;49.594;11.022;2023-02-13T12:24:34;15.27;;;12.00;;
9761;SDS011;4920;49.594;11.022;2023-02-13T12:27:17;16.13;;;11.77;;
9761;SDS011;4920;49.594;11.022;2023-02-13T12:30:00;14.90;;;11.93;;
9761;SDS011;4920;49.594;11.022;2023-02-13T12:32:55;16.23;;;11.73;;
9761;SDS011;4920;49.594;11.022;2023-02-13T12:35:56;17.17;;;12.00;;
9761;SDS011;4920;49.594;11.022;2023-02-13T12:38:39;15.07;;;11.10;;
9761;SDS011;4920;49.594;11.022;2023-02-13T12:41:23;12.43;;;10.30;;
9761;SDS011;4920;49.594;11.022;2023-02-13T12:44:11;14.17;;;11.30;;
9761;SDS011;4920;49.594;11.022;2023-02-13T12:47:09;14.87;;;11.30;;
9761;SDS011;4920;49.594;11.022;2023-02-13T12:49:48;14.10;;;10.73;;
9761;SDS011;4920;49.594;11.022;2023-02-13T12:52:50;14.83;;;10.73;;
9761;SDS011;4920;49.594;11.022;2023-02-13T12:55:35;15.30;;;11.13;;
9761;SDS011;4920;49.594;11.022;2023-02-13T12:58:32;13.87;;;11.37;;
9761;SDS011;4920;49.594;11.022;2023-02-13T13:09:01;11.70;;;9.00;;
9761;SDS011;4920;49.594;11.022;2023-02-13T13:11:56;17.10;;;10.57;;
9761;SDS011;4920;49.594;11.022;2023-02-13T13:32:38;8.43;;;6.70;;
9761;SDS011;4920;49.594;11.022;2023-02-13T13:37:17;11.27;;;7.57;;
9761;SDS011;4920;49.594;11.022;2023-02-13T13:44:20;13.67;;;7.77;;
9761;SDS011;4920;49.594;11.022;2023-02-13T13:47:48;11.80;;;8.27;;
9761;SDS011;4920;49.594;11.022;2023-02-13T13:54:31;11.43;;;7.60;;
9761;SDS011;4920;49.594;11.022;2023-02-13T14:04:10;8.67;;;7.10;;
9761;SDS011;4920;49.594;11.022;2023-02-13T14:13:32;11.57;;;7.73;;
9761;SDS011;4920;49.594;11.022;2023-02-13T14:16:11;11.47;;;8.70;;
9761;SDS011;4920;49.594;11.022;2023-02-13T14:22:26;10.00;;;7.83;;
9761;SDS011;4920;49.594;11.022;2023-02-13T14:25:06;8.83;;;7.43;;
9761;SDS011;4920;49.594;11.022;2023-02-13T14:27:56;10.30;;;7.57;;
9761;SDS011;4920;49.594;11.022;2023-02-13T14:30:27;10.13;;;7.40;;
9761;SDS011;4920;49.594;11.022;2023-02-13T14:33:02;11.07;;;7.80;;
9761;SDS011;4920;49.594;11.022;2023-02-13T14:35:33;9.43;;;7.30;;
9761;SDS011;4920;49.594;11.022;2023-02-13T14:38:05;9.67;;;7.57;;
9761;SDS011;4920;49.594;11.022;2023-02-13T14:40:46;11.30;;;8.40;;
9761;SDS011;4920;49.594;11.022;2023-02-13T14:43:23;10.33;;;7.70;;
9761;SDS011;4920;49.594;11.022;2023-02-13T14:45:57;9.80;;;7.33;;
9761;SDS011;4920;49.594;11.022;2023-02-13T14:48:54;10.20;;;7.53;;
9761;SDS011;4920;49.594;11.022;2023-02-13T14:51:29;9.20;;;7.13;;
9761;SDS011;4920;49.594;11.022;2023-02-13T14:54:04;9.57;;;6.53;;
9761;SDS011;4920;49.594;11.022;2023-02-13T14:56:39;10.10;;;7.30;;
9761;SDS011;4920;49.594;11.022;2023-02-13T14:59:18;8.17;;;7.10;;
9761;SDS011;4920;49.594;11.022;2023-02-13T15:02:00;11.53;;;7.37;;
9761;SDS011;4920;49.594;11.022;2023-02-13T15:05:26;10.70;;;7.50;;
9761;SDS011;4920;49.594;11.022;2023-02-13T15:08:10;9.90;;;7.10;;
9761;SDS011;4920;49.594;11.022;2023-02-13T15:10:48;11.37;;;6.90;;
9761;SDS011;4920;49.594;11.022;2023-02-13T15:13:49;8.73;;;7.13;;
9761;SDS011;4920;49.594;11.022;2023-02-13T15:16:22;9.33;;;7.10;;
9761;SDS011;4920;49.594;11.022;2023-02-13T15:18:53;8.23;;;6.90;;
9761;SDS011;4920;49.594;11.022;2023-02-13T15:24:45;14.33;;;7.10;;
9761;SDS011;4920;49.594;11.022;2023-02-13T15:28:02;8.20;;;6.67;;
9761;SDS011;4920;49.594;11.022;2023-02-13T15:32:25;10.57;;;6.73;;
9761;SDS011;4920;49.594;11.022;2023-02-13T15:36:05;9.10;;;7.10;;
9761;SDS011;4920;49.594;11.022;2023-02-13T15:39:35;9.53;;;6.90;;
9761;SDS011;4920;49.594;11.022;2023-02-13T15:42:24;10.27;;;6.53;;
9761;SDS011;4920;49.594;11.022;2023-02-13T15:45:43;13.47;;;7.30;;
9761;SDS011;4920;49.594;11.022;2023-02-13T15:52:28;9.93;;;7.27;;
9761;SDS011;4920;49.594;11.022;2023-02-13T15:55:02;9.07;;;7.20;;
9761;SDS011;4920;49.594;11.022;2023-02-13T15:57:38;11.37;;;7.40;;
9761;SDS011;4920;49.594;11.022;2023-02-13T16:00:11;9.00;;;7.70;;
9761;SDS011;4920;49.594;11.022;2023-02-13T16:02:46;11.40;;;7.37;;
9761;SDS011;4920;49.594;11.022;2023-02-13T16:05:15;11.10;;;7.37;;
9761;SDS011;4920;49.594;11.022;2023-02-13T16:11:22;9.43;;;7.33;;
9761;SDS011;4920;49.594;11.022;2023-02-13T16:14:19;11.20;;;7.60;;
9761;SDS011;4920;49.594;11.022;2023-02-13T16:16:58;13.97;;;7.27;;
9761;SDS011;4920;49.594;11.022;2023-02-13T16:19:35;10.70;;;7.57;;
9761;SDS011;4920;49.594;11.022;2023-02-13T16:25:25;11.90;;;7.70;;
9761;SDS011;4920;49.594;11.022;2023-02-13T16:27:58;12.77;;;8.07;;
9761;SDS011;4920;49.594;11.022;2023-02-13T16:30:33;9.97;;;7.70;;
9761;SDS011;4920;49.594;11.022;2023-02-13T16:33:11;11.90;;;8.07;;
9761;SDS011;4920;49.594;11.022;2023-02-13T16:35:56;11.57;;;8.50;;
9761;SDS011;4920;49.594;11.022;2023-02-13T16:41:28;13.43;;;8.83;;
9761;SDS011;4920;49.594;11.022;2023-02-13T16:43:58;12.37;;;9.07;;
9761;SDS011;4920;49.594;11.022;2023-02-13T16:46:32;14.00;;;9.23;;
9761;SDS011;4920;49.594;11.022;2023-02-13T16:49:04;14.60;;;9.77;;
9761;SDS011;4920;49.594;11.022;2023-02-13T16:51:56;14.23;;;9.63;;
9761;SDS011;4920;49.594;11.022;2023-02-13T16:54:31;12.17;;;8.73;;
9761;SDS011;4920;49.594;11.022;2023-02-13T16:57:15;18.00;;;10.03;;
9761;SDS011;4920;49.594;11.022;2023-02-13T16:59:55;15.17;;;9.60;;
9761;SDS011;4920;49.594;11.022;2023-02-13T17:02:30;17.17;;;10.10;;
9761;SDS011;4920;49.594;11.022;2023-02-13T17:05:11;19.80;;;11.23;;
9761;SDS011;4920;49.594;11.022;2023-02-13T17:07:47;17.07;;;11.13;;
9761;SDS011;4920;49.594;11.022;2023-02-13T17:10:19;14.77;;;9.80;;
9761;SDS011;4920;49.594;11.022;2023-02-13T17:12:55;16.73;;;9.70;;
9761;SDS011;4920;49.594;11.022;2023-02-13T17:23:33;13.50;;;9.37;;
9761;SDS011;4920;49.594;11.022;2023-02-13T17:27:27;12.33;;;8.97;;
9761;SDS011;4920;49.594;11.022;2023-02-13T17:31:13;13.10;;;8.80;;
9761;SDS011;4920;49.594;11.022;2023-02-13T17:38:56;14.73;;;9.20;;
9761;SDS011;4920;49.594;11.022;2023-02-13T17:42:52;14.07;;;9.10;;
9761;SDS011;4920;49.594;11.022;2023-02-13T17:46:43;14.73;;;8.90;;
9761;SDS011;4920;49.594;11.022;2023-02-13T17:50:40;16.87;;;10.43;;
9761;SDS011;4920;49.594;11.022;2023-02-13T17:58:20;16.87;;;11.00;;
9761;SDS011;4920;49.594;11.022;2023-02-13T18:15:48;22.27;;;12.60;;